Time;durP1;ratioP1;P1;durP2;ratioP2;P2;SDS_P1;SDS_P2;PMS_P1;PMS_P2;Temp;Humidity;BMP_temperature;BMP_pressure;BME280_temperature;BME280_humidity;BME280_pressure;Samples;Min_cycle;Max_cycle;Signal;HPM_P1;HPM_P2
2023/10/04 04:02:28;;;;;;;2.93;1.30;;;13.90;80.80;;;;;;5157977;23;20558;-73
2023/10/04 04:04:54;;;;;;;2.00;1.20;;;13.90;80.60;;;;;;4997989;28;20441;-73
2023/10/04 04:07:21;;;;;;;3.60;1.43;;;13.90;80.50;;;;;;4998083;28;20508;-73
2023/10/04 04:09:48;;;;;;;2.27;1.33;;;13.90;80.60;;;;;;4998162;28;20452;-73
2023/10/04 04:12:16;;;;;;;2.67;1.60;;;13.90;80.70;;;;;;4997765;28;20471;-73
2023/10/04 04:14:43;;;;;;;2.40;1.20;;;13.80;81.10;;;;;;4997864;28;20495;-72
2023/10/04 04:19:38;;;;;;;2.50;1.40;;;13.80;81.30;;;;;;5064209;23;20516;-72
2023/10/04 04:22:05;;;;;;;2.60;1.70;;;13.80;81.50;;;;;;5017369;28;20202;-73
2023/10/04 04:24:32;;;;;;;2.77;1.67;;;13.80;81.40;;;;;;5017926;28;20467;-73
2023/10/04 04:27:00;;;;;;;3.80;1.60;;;13.90;81.20;;;;;;5017344;28;20539;-72
2023/10/04 04:29:28;;;;;;;3.70;2.20;;;13.90;81.10;;;;;;5016528;28;20503;-73
2023/10/04 04:31:56;;;;;;;2.57;1.60;;;13.90;81.20;;;;;;5015101;28;20452;-73
2023/10/04 04:34:25;;;;;;;2.30;1.30;;;13.90;81.20;;;;;;5015114;28;20860;-73
2023/10/04 04:36:55;;;;;;;2.10;1.13;;;13.70;81.80;;;;;;5015466;28;20452;-73
2023/10/04 04:39:28;;;;;;;2.90;1.30;;;13.70;81.90;;;;;;5014453;28;20475;-72
2023/10/04 04:41:55;;;;;;;2.10;1.20;;;13.70;81.60;;;;;;5014714;28;20479;-73
2023/10/04 04:44:29;;;;;;;2.10;1.40;;;13.80;81.30;;;;;;5014505;28;20848;-73
2023/10/04 04:46:57;;;;;;;2.13;1.37;;;13.70;81.10;;;;;;5015749;28;20523;-72
2023/10/04 04:49:24;;;;;;;2.87;1.40;;;13.70;81.40;;;;;;5015939;28;20500;-73
2023/10/04 04:51:52;;;;;;;2.97;1.27;;;13.60;81.40;;;;;;5015866;28;20522;-72
2023/10/04 04:54:20;;;;;;;2.50;1.30;;;13.60;81.40;;;;;;5015654;28;20452;-73
2023/10/04 04:56:46;;;;;;;3.07;1.50;;;13.60;81.40;;;;;;5015901;28;20444;-73
2023/10/04 04:59:14;;;;;;;2.67;1.20;;;13.60;81.40;;;;;;5016300;28;20467;-73
2023/10/04 05:01:41;;;;;;;2.63;1.40;;;13.60;81.30;;;;;;5016318;28;20459;-73
2023/10/04 05:04:08;;;;;;;2.20;1.43;;;13.60;81.30;;;;;;5016327;28;20452;-73
2023/10/04 05:06:36;;;;;;;2.30;1.33;;;13.50;81.50;;;;;;5016947;28;20448;-72
2023/10/04 05:09:04;;;;;;;2.40;1.50;;;13.50;81.30;;;;;;5016751;28;20468;-72
2023/10/04 05:11:33;;;;;;;1.90;1.13;;;13.50;81.40;;;;;;5016982;28;20519;-72
2023/10/04 05:14:00;;;;;;;2.53;1.40;;;13.50;81.30;;;;;;5016251;28;20451;-72
2023/10/04 05:16:27;;;;;;;2.70;1.53;;;13.60;81.30;;;;;;5014211;28;20536;-72
2023/10/04 05:18:54;;;;;;;3.33;1.63;;;13.60;81.30;;;;;;5013550;28;20480;-70
2023/10/04 05:21:21;;;;;;;2.60;1.57;;;13.70;81.30;;;;;;5013859;28;20480;-73
2023/10/04 05:23:47;;;;;;;2.33;1.53;;;13.60;81.00;;;;;;5014148;28;20444;-71
2023/10/04 05:26:14;;;;;;;2.83;1.47;;;13.70;80.80;;;;;;5013864;28;20447;-71
2023/10/04 05:28:42;;;;;;;2.57;1.30;;;13.70;80.80;;;;;;5013543;28;20467;-70
2023/10/04 05:31:09;;;;;;;2.40;1.20;;;13.70;80.80;;;;;;5013967;28;20447;-71
2023/10/04 05:33:36;;;;;;;2.20;1.20;;;13.70;80.60;;;;;;5013027;28;20830;-71
2023/10/04 05:36:04;;;;;;;2.27;1.30;;;13.70;80.30;;;;;;5013420;28;20937;-69
2023/10/04 05:38:32;;;;;;;1.93;1.10;;;13.70;80.40;;;;;;5013157;28;20969;-72
2023/10/04 05:41:00;;;;;;;2.60;1.63;;;13.70;80.30;;;;;;5012946;28;20452;-69
2023/10/04 05:43:28;;;;;;;2.20;1.30;;;13.70;80.20;;;;;;5013047;28;20455;-71
2023/10/04 05:45:57;;;;;;;2.10;1.17;;;13.70;80.30;;;;;;5013312;28;20444;-71
2023/10/04 05:48:26;;;;;;;2.67;1.53;;;13.80;80.00;;;;;;5013149;28;20496;-71
2023/10/04 05:50:54;;;;;;;2.80;1.43;;;13.80;80.00;;;;;;5013388;28;20451;-72
2023/10/04 05:53:21;;;;;;;2.60;1.60;;;13.80;80.10;;;;;;5013164;28;20935;-71
2023/10/04 05:55:49;;;;;;;2.73;1.40;;;13.80;80.20;;;;;;5013610;28;20480;-71
2023/10/04 05:58:18;;;;;;;4.67;1.43;;;13.80;80.00;;;;;;5013470;28;20495;-71
2023/10/04 06:00:51;;;;;;;2.17;1.13;;;13.90;80.10;;;;;;5013511;28;20503;-72
2023/10/04 06:03:19;;;;;;;2.17;1.13;;;14.00;79.70;;;;;;5013632;28;20533;-71
2023/10/04 06:05:46;;;;;;;2.67;1.40;;;14.00;79.60;;;;;;5013510;28;20436;-72
2023/10/04 06:08:18;;;;;;;2.73;1.40;;;14.10;79.30;;;;;;5013180;28;20976;-71
2023/10/04 06:10:45;;;;;;;3.03;1.43;;;14.20;79.20;;;;;;5013467;28;20433;-71
2023/10/04 06:13:12;;;;;;;2.70;1.33;;;14.30;78.90;;;;;;5013213;28;20451;-71
2023/10/04 06:15:40;;;;;;;2.20;1.40;;;14.60;79.30;;;;;;5013583;28;20526;-71
2023/10/04 06:18:08;;;;;;;2.87;1.80;;;15.40;78.10;;;;;;5013168;28;20476;-71
2023/10/04 06:20:38;;;;;;;2.10;1.27;;;16.30;74.50;;;;;;5013278;28;20448;-71
2023/10/04 06:23:06;;;;;;;2.30;1.40;;;16.90;72.10;;;;;;5013255;28;20494;-72
2023/10/04 06:25:35;;;;;;;2.17;1.27;;;17.40;71.10;;;;;;5013352;28;20443;-72
2023/10/04 06:28:04;;;;;;;2.00;1.10;;;18.30;69.30;;;;;;5016898;28;20494;-72
2023/10/04 06:30:32;;;;;;;2.73;1.40;;;19.70;66.40;;;;;;5016761;28;20452;-72
2023/10/04 06:33:01;;;;;;;1.83;1.20;;;21.10;62.80;;;;;;5016340;28;20852;-72
2023/10/04 06:35:28;;;;;;;2.33;1.10;;;22.40;59.80;;;;;;5016661;28;20484;-70
2023/10/04 06:37:59;;;;;;;1.67;1.00;;;23.60;57.00;;;;;;5017226;28;20480;-72
2023/10/04 06:40:27;;;;;;;2.00;1.20;;;24.70;54.40;;;;;;5017596;28;20951;-71
2023/10/04 06:42:56;;;;;;;2.10;1.40;;;25.80;51.40;;;;;;5017626;28;20456;-72
2023/10/04 06:45:24;;;;;;;2.17;1.37;;;26.50;49.90;;;;;;5017394;28;20474;-72
2023/10/04 06:47:53;;;;;;;2.20;1.20;;;27.20;48.60;;;;;;5016850;28;20502;-71
2023/10/04 06:50:21;;;;;;;2.90;1.80;;;27.40;47.70;;;;;;5017196;28;20452;-71
2023/10/04 06:52:49;;;;;;;2.23;1.53;;;28.10;46.50;;;;;;5016640;28;20541;-71
2023/10/04 06:55:18;;;;;;;2.60;1.73;;;28.60;45.30;;;;;;5016055;28;20495;-71
2023/10/04 06:57:46;;;;;;;4.13;1.40;;;29.00;45.10;;;;;;5015893;28;20468;-72
2023/10/04 07:00:15;;;;;;;2.20;1.37;;;29.70;43.80;;;;;;5015991;28;20502;-71
2023/10/04 07:02:43;;;;;;;2.70;1.50;;;30.40;43.00;;;;;;5015924;28;20499;-71
2023/10/04 07:05:10;;;;;;;2.53;1.23;;;31.30;42.20;;;;;;5015852;28;20444;-71
2023/10/04 07:07:37;;;;;;;2.77;1.20;;;31.80;40.70;;;;;;5015664;28;20495;-71
2023/10/04 07:10:06;;;;;;;1.60;1.00;;;32.40;40.10;;;;;;5015736;28;20484;-71
2023/10/04 07:12:35;;;;;;;2.30;1.20;;;33.10;39.40;;;;;;5015370;28;21007;-72
2023/10/04 07:15:03;;;;;;;3.93;1.73;;;33.50;38.20;;;;;;5015309;28;20456;-72
2023/10/04 07:17:30;;;;;;;2.77;1.43;;;34.00;37.50;;;;;;5015570;28;20479;-73
2023/10/04 07:19:58;;;;;;;1.70;1.20;;;34.40;37.50;;;;;;5015594;28;20491;-72
2023/10/04 07:22:29;;;;;;;3.23;1.43;;;34.00;36.90;;;;;;5015437;28;20483;-72
2023/10/04 07:24:56;;;;;;;2.70;1.50;;;33.90;37.00;;;;;;5015500;28;20437;-71
2023/10/04 07:27:23;;;;;;;3.03;1.60;;;33.60;36.90;;;;;;5015275;28;20453;-71
2023/10/04 07:29:52;;;;;;;2.20;1.10;;;33.00;38.60;;;;;;5015392;28;20455;-71
2023/10/04 07:32:19;;;;;;;2.10;1.30;;;33.10;38.90;;;;;;5015396;28;20448;-71
2023/10/04 07:34:46;;;;;;;2.23;1.20;;;33.10;39.10;;;;;;5015296;28;20448;-71
2023/10/04 07:37:13;;;;;;;3.50;1.50;;;32.90;39.50;;;;;;5014773;28;20545;-73
2023/10/04 07:39:39;;;;;;;1.90;1.07;;;31.90;39.60;;;;;;5015293;28;20447;-72
2023/10/04 07:42:06;;;;;;;3.27;1.30;;;30.70;41.10;;;;;;5015249;28;20455;-71
2023/10/04 07:44:33;;;;;;;1.90;1.30;;;29.70;43.00;;;;;;5015155;28;20456;-72
2023/10/04 07:47:01;;;;;;;2.67;1.50;;;29.00;43.90;;;;;;5015237;28;20440;-72
2023/10/04 07:49:31;;;;;;;2.03;1.30;;;28.10;45.10;;;;;;5015246;28;20495;-72
2023/10/04 07:51:58;;;;;;;2.90;1.20;;;27.10;47.00;;;;;;5015348;28;20448;-72
2023/10/04 07:54:25;;;;;;;2.80;1.37;;;26.30;48.20;;;;;;5014822;28;20486;-73
2023/10/04 07:56:51;;;;;;;2.87;1.30;;;25.30;49.40;;;;;;5015187;28;20861;-72
2023/10/04 07:59:18;;;;;;;2.30;1.20;;;24.20;52.00;;;;;;5014967;28;20468;-73
2023/10/04 08:01:46;;;;;;;2.77;1.40;;;23.40;53.70;;;;;;5015421;28;20807;-71
2023/10/04 08:04:14;;;;;;;1.97;1.23;;;22.70;54.90;;;;;;5015100;28;20539;-72
2023/10/04 08:06:41;;;;;;;2.40;1.17;;;22.20;57.30;;;;;;5015135;28;20452;-71
2023/10/04 08:09:08;;;;;;;3.83;1.20;;;22.00;57.80;;;;;;5015146;28;20468;-71
2023/10/04 08:11:34;;;;;;;2.17;1.10;;;21.90;57.10;;;;;;5015134;28;20455;-72
2023/10/04 08:14:07;;;;;;;4.90;1.53;;;21.90;57.40;;;;;;5015130;28;20448;-72
2023/10/04 08:16:34;;;;;;;2.30;1.20;;;21.70;57.50;;;;;;5015407;28;20464;-72
2023/10/04 08:19:01;;;;;;;2.93;1.60;;;21.40;58.10;;;;;;5014582;28;20472;-72
2023/10/04 08:21:29;;;;;;;2.83;1.23;;;21.40;58.90;;;;;;5014680;28;20448;-71
2023/10/04 08:23:57;;;;;;;2.80;1.27;;;21.30;58.40;;;;;;5014701;28;20444;-71
2023/10/04 08:26:25;;;;;;;2.37;1.20;;;21.20;60.20;;;;;;5014095;28;21044;-70
2023/10/04 08:28:53;;;;;;;2.13;1.10;;;21.20;61.90;;;;;;5014413;28;20472;-70
2023/10/04 08:31:20;;;;;;;2.03;1.07;;;21.30;61.10;;;;;;5014264;28;20499;-69
2023/10/04 08:33:48;;;;;;;2.00;1.13;;;21.20;60.00;;;;;;5014253;28;20960;-71
2023/10/04 08:36:16;;;;;;;2.50;1.37;;;21.10;60.30;;;;;;5014210;28;20491;-70
2023/10/04 08:38:45;;;;;;;3.63;1.33;;;21.00;60.50;;;;;;5013902;28;20468;-70
2023/10/04 08:41:12;;;;;;;2.33;1.20;;;21.00;60.10;;;;;;5014100;28;20453;-70
2023/10/04 08:43:39;;;;;;;2.30;1.27;;;20.30;61.00;;;;;;5014172;28;20808;-70
2023/10/04 08:46:08;;;;;;;3.10;1.30;;;20.00;62.50;;;;;;5013861;28;20448;-70
2023/10/04 08:48:34;;;;;;;3.10;1.30;;;19.90;61.80;;;;;;5013094;28;20555;-70
2023/10/04 08:51:09;;;;;;;2.20;1.10;;;20.00;62.30;;;;;;5014110;28;20448;-69
2023/10/04 08:53:48;;;;;;;3.13;1.10;;;19.70;61.50;;;;;;5014132;28;20842;-70
2023/10/04 08:56:18;;;;;;;3.37;1.40;;;19.30;62.20;;;;;;5014323;28;20472;-71
2023/10/04 08:59:00;;;;;;;2.53;1.27;;;19.20;63.60;;;;;;5014174;28;20476;-72
2023/10/04 09:01:30;;;;;;;3.63;1.60;;;19.10;63.90;;;;;;5013282;28;20452;-72
2023/10/04 09:04:00;;;;;;;2.33;1.20;;;19.20;63.80;;;;;;5014608;28;20432;-72
2023/10/04 09:06:27;;;;;;;3.00;1.10;;;19.20;63.80;;;;;;5014834;28;20436;-71
2023/10/04 09:08:53;;;;;;;2.17;1.00;;;19.10;63.10;;;;;;5014460;28;20487;-72
2023/10/04 09:11:22;;;;;;;2.00;1.10;;;19.10;63.30;;;;;;5014238;28;20440;-71
2023/10/04 09:13:52;;;;;;;2.83;1.33;;;19.10;63.50;;;;;;5014560;28;20814;-71
2023/10/04 09:16:20;;;;;;;2.30;1.07;;;19.10;63.60;;;;;;5014593;28;20515;-71
2023/10/04 09:18:47;;;;;;;2.40;1.37;;;19.00;63.40;;;;;;5014105;28;20476;-71
2023/10/04 09:21:16;;;;;;;2.57;1.40;;;19.10;63.50;;;;;;5014202;28;20461;-72
2023/10/04 09:23:45;;;;;;;2.73;1.20;;;19.20;63.70;;;;;;5014201;28;20448;-71
2023/10/04 09:26:19;;;;;;;2.40;1.13;;;19.10;63.00;;;;;;5013606;28;20552;-71
2023/10/04 09:28:49;;;;;;;3.10;1.57;;;19.00;63.30;;;;;;5013605;28;20884;-72
2023/10/04 09:31:19;;;;;;;1.90;1.00;;;19.10;64.80;;;;;;5014174;28;20424;-72
2023/10/04 09:33:45;;;;;;;2.60;1.13;;;19.10;62.90;;;;;;5015048;28;20452;-72
2023/10/04 09:36:13;;;;;;;2.40;1.17;;;19.20;63.00;;;;;;5013717;28;20491;-71
2023/10/04 09:38:41;;;;;;;2.67;0.90;;;19.20;63.80;;;;;;5013796;28;20472;-71
2023/10/04 09:41:09;;;;;;;2.50;1.30;;;18.90;63.60;;;;;;5013727;28;20539;-71
2023/10/04 09:43:37;;;;;;;2.23;1.13;;;18.60;64.70;;;;;;5013642;28;20462;-71
2023/10/04 09:46:07;;;;;;;2.40;1.17;;;18.80;67.10;;;;;;5014246;28;20445;-72
2023/10/04 09:48:37;;;;;;;2.30;1.40;;;19.00;64.30;;;;;;5013801;28;21038;-71
2023/10/04 09:51:05;;;;;;;2.93;1.27;;;19.20;62.90;;;;;;5014216;28;20452;-72
2023/10/04 09:53:31;;;;;;;2.57;1.23;;;19.20;62.30;;;;;;5013735;28;20480;-72
2023/10/04 09:56:02;;;;;;;2.33;1.30;;;19.10;62.10;;;;;;5013841;28;20440;-71
2023/10/04 09:58:31;;;;;;;2.87;1.07;;;19.20;63.70;;;;;;5013672;28;20487;-71
2023/10/04 10:01:04;;;;;;;3.77;1.43;;;19.30;62.40;;;;;;5015891;28;20499;-71
2023/10/04 10:03:36;;;;;;;3.50;1.10;;;19.10;62.80;;;;;;5017457;28;20432;-71
2023/10/04 10:06:04;;;;;;;1.83;0.93;;;19.10;63.90;;;;;;5017288;28;20883;-70
2023/10/04 10:08:35;;;;;;;2.80;1.50;;;19.10;62.40;;;;;;5017666;28;20474;-72
2023/10/04 10:11:04;;;;;;;1.87;1.07;;;19.20;62.20;;;;;;5017490;28;20428;-71
2023/10/04 10:13:31;;;;;;;2.40;1.07;;;19.40;63.60;;;;;;5017736;28;20488;-71
2023/10/04 10:15:58;;;;;;;2.53;1.00;;;19.40;62.50;;;;;;5017495;28;20448;-72
2023/10/04 10:18:25;;;;;;;2.50;1.30;;;19.50;61.20;;;;;;5019449;23;20526;-72
2023/10/04 10:20:55;;;;;;;2.53;1.17;;;19.60;61.00;;;;;;4997720;28;20478;-72
2023/10/04 10:23:22;;;;;;;5.03;1.50;;;19.70;60.40;;;;;;4997503;28;20458;-72
2023/10/04 10:26:17;;;;;;;2.30;1.30;;;19.70;65.30;;;;;;4998513;28;20479;-72
2023/10/04 10:28:47;;;;;;;2.50;1.30;;;19.60;61.70;;;;;;4997724;28;20465;-72
2023/10/04 10:31:21;;;;;;;2.00;1.10;;;19.70;62.50;;;;;;4997896;28;20507;-72
2023/10/04 10:33:50;;;;;;;2.90;1.10;;;19.80;61.90;;;;;;4997964;28;20417;-72
2023/10/04 10:36:22;;;;;;;3.00;1.00;;;19.80;61.60;;;;;;4997427;28;20511;-72
2023/10/04 10:38:51;;;;;;;2.90;1.10;;;19.90;59.80;;;;;;4997267;28;20464;-72
2023/10/04 10:41:55;;;;;;;2.37;1.00;;;20.00;60.00;;;;;;4997119;28;20449;-72
2023/10/04 10:44:24;;;;;;;2.70;1.70;;;20.00;59.80;;;;;;4997069;28;20504;-72
2023/10/04 10:46:54;;;;;;;4.57;1.43;;;20.00;60.30;;;;;;4997008;28;20449;-72
2023/10/04 10:49:49;;;;;;;3.00;1.40;;;20.20;61.50;;;;;;4997470;28;20500;-72
2023/10/04 10:52:30;;;;;;;2.80;1.20;;;20.40;59.70;;;;;;4988000;28;20947;-71
2023/10/04 10:54:59;;;;;;;2.27;1.30;;;20.50;59.30;;;;;;4997535;28;20457;-71
2023/10/04 10:57:28;;;;;;;2.40;1.20;;;20.60;59.50;;;;;;4996494;28;20553;-71
2023/10/04 10:59:56;;;;;;;2.03;1.20;;;20.60;58.80;;;;;;4996659;28;21021;-72
2023/10/04 11:02:23;;;;;;;2.13;1.10;;;20.70;54.90;;;;;;4996851;28;20797;-72
2023/10/04 11:04:50;;;;;;;2.10;1.23;;;20.50;57.10;;;;;;4996923;28;20445;-71
2023/10/04 11:07:17;;;;;;;2.17;1.07;;;20.70;58.90;;;;;;4996898;28;20457;-72
2023/10/04 11:09:49;;;;;;;2.10;1.10;;;20.70;57.30;;;;;;4996677;28;20492;-72
2023/10/04 11:12:18;;;;;;;3.03;1.20;;;20.80;57.90;;;;;;4995896;28;20778;-72
2023/10/04 11:14:45;;;;;;;3.40;1.30;;;21.00;56.80;;;;;;4996563;28;20441;-72
2023/10/04 11:17:13;;;;;;;2.30;1.20;;;21.00;57.00;;;;;;4996341;28;20860;-71
2023/10/04 11:19:40;;;;;;;1.80;0.87;;;21.10;56.60;;;;;;4996114;28;20989;-72
2023/10/04 11:22:09;;;;;;;1.80;0.90;;;21.30;55.30;;;;;;4996525;28;20449;-72
2023/10/04 11:24:36;;;;;;;1.70;1.00;;;21.30;54.80;;;;;;4996294;28;20488;-72
2023/10/04 11:27:04;;;;;;;2.60;1.30;;;21.30;55.30;;;;;;4996267;28;20446;-72
2023/10/04 11:29:32;;;;;;;2.60;1.00;;;21.40;55.40;;;;;;4995949;28;20873;-72
2023/10/04 11:32:00;;;;;;;3.37;1.20;;;21.50;53.50;;;;;;4996305;28;20453;-72
2023/10/04 11:34:27;;;;;;;1.83;1.10;;;21.60;53.70;;;;;;4996258;28;20535;-72
2023/10/04 11:37:00;;;;;;;2.03;1.13;;;21.70;51.90;;;;;;4995990;28;20493;-71
2023/10/04 11:39:33;;;;;;;2.10;1.00;;;21.60;53.80;;;;;;4996446;28;20489;-73
2023/10/04 11:42:01;;;;;;;3.07;1.00;;;21.70;54.80;;;;;;4996270;28;20524;-71
2023/10/04 11:44:30;;;;;;;2.10;1.10;;;21.60;53.90;;;;;;4995939;28;20468;-71
2023/10/04 11:46:59;;;;;;;2.97;1.10;;;21.50;54.10;;;;;;4996085;28;20441;-72
2023/10/04 11:49:28;;;;;;;1.90;1.00;;;21.50;54.90;;;;;;4995464;28;20556;-73
2023/10/04 11:51:58;;;;;;;1.80;0.97;;;21.50;55.30;;;;;;4995561;28;20449;-74
2023/10/04 11:54:26;;;;;;;3.03;1.00;;;21.30;53.40;;;;;;4995133;28;20449;-74
2023/10/04 11:56:53;;;;;;;2.37;1.00;;;21.20;53.90;;;;;;4995283;28;20495;-73
2023/10/04 11:59:31;;;;;;;1.73;1.10;;;21.30;53.60;;;;;;4995269;28;20496;-73
2023/10/04 12:01:57;;;;;;;2.00;1.00;;;21.30;53.80;;;;;;4995318;28;20902;-72
2023/10/04 12:04:24;;;;;;;1.90;0.90;;;21.30;54.70;;;;;;4995103;28;20950;-72
2023/10/04 12:06:59;;;;;;;2.50;1.13;;;21.10;54.80;;;;;;4995347;28;20464;-72
2023/10/04 12:09:27;;;;;;;2.93;1.20;;;21.00;55.80;;;;;;4995689;28;20472;-72
2023/10/04 12:11:54;;;;;;;3.50;1.07;;;20.90;55.90;;;;;;4995327;28;20501;-72
2023/10/04 12:14:21;;;;;;;2.00;0.90;;;20.80;56.20;;;;;;4995356;28;20870;-72
2023/10/04 12:16:50;;;;;;;2.00;0.90;;;20.80;56.60;;;;;;4995026;28;20477;-72
2023/10/04 12:19:17;;;;;;;3.20;1.20;;;21.00;56.00;;;;;;4995156;28;20484;-71
2023/10/04 12:21:44;;;;;;;1.67;0.90;;;21.20;55.20;;;;;;4995178;28;20481;-71
2023/10/04 12:24:11;;;;;;;1.93;0.97;;;21.30;55.70;;;;;;4994387;28;20453;-72
2023/10/04 12:26:38;;;;;;;2.10;1.00;;;21.70;54.30;;;;;;4995105;28;20453;-71
2023/10/04 12:29:05;;;;;;;3.30;2.00;;;22.20;54.00;;;;;;4994818;28;20477;-72
2023/10/04 12:31:32;;;;;;;2.67;1.30;;;22.60;52.80;;;;;;4995371;28;20532;-73
2023/10/04 12:34:00;;;;;;;1.90;1.17;;;22.90;50.70;;;;;;4994757;28;20450;-72
2023/10/04 12:36:26;;;;;;;2.00;1.10;;;23.20;51.20;;;;;;4994561;28;20569;-71
2023/10/04 12:38:53;;;;;;;2.73;1.10;;;23.40;49.90;;;;;;4994123;28;21006;-69
2023/10/04 12:41:21;;;;;;;2.00;1.00;;;23.60;50.00;;;;;;4994605;28;20452;-69
2023/10/04 12:43:48;;;;;;;2.07;1.10;;;23.90;50.50;;;;;;4994379;28;20453;-69
2023/10/04 12:46:16;;;;;;;1.97;1.00;;;24.30;49.10;;;;;;4994407;28;20503;-70
2023/10/04 12:48:42;;;;;;;4.53;1.10;;;24.60;47.20;;;;;;4994285;28;20503;-71
2023/10/04 12:51:11;;;;;;;1.73;0.90;;;24.80;47.00;;;;;;4994339;28;20449;-72
2023/10/04 12:53:37;;;;;;;2.83;1.10;;;24.80;46.80;;;;;;4994325;28;20453;-70
2023/10/04 12:56:06;;;;;;;3.70;1.13;;;24.80;47.40;;;;;;4994129;28;20961;-71
2023/10/04 12:58:33;;;;;;;1.80;1.00;;;24.90;46.80;;;;;;4993796;28;20883;-71
2023/10/04 13:01:04;;;;;;;2.20;1.07;;;25.00;46.50;;;;;;4994161;28;20450;-71
2023/10/04 13:03:31;;;;;;;2.10;1.10;;;25.10;46.50;;;;;;4993983;28;20966;-71
2023/10/04 13:05:58;;;;;;;3.90;1.90;;;25.10;46.80;;;;;;4994112;28;20459;-73
2023/10/04 13:08:27;;;;;;;2.00;1.10;;;25.00;47.00;;;;;;4995137;28;20483;-72
2023/10/04 13:10:55;;;;;;;2.33;1.10;;;24.90;46.90;;;;;;4994749;28;20457;-70
2023/10/04 13:13:21;;;;;;;2.03;1.00;;;24.70;47.50;;;;;;4993939;28;20508;-70
2023/10/04 13:15:48;;;;;;;1.90;1.17;;;24.50;47.80;;;;;;4993607;28;20822;-70
2023/10/04 13:18:15;;;;;;;2.00;1.10;;;24.20;48.30;;;;;;4993582;28;20492;-77
2023/10/04 13:20:42;;;;;;;2.00;1.00;;;24.10;49.80;;;;;;4993982;28;20449;-71
2023/10/04 13:23:11;;;;;;;2.40;1.13;;;23.90;48.50;;;;;;4994011;28;20556;-70
2023/10/04 13:25:40;;;;;;;2.60;1.30;;;23.80;49.10;;;;;;4993986;28;20449;-79
2023/10/04 13:28:10;;;;;;;2.10;1.10;;;23.70;50.10;;;;;;4993997;28;20552;-73
2023/10/04 13:30:37;;;;;;;3.17;1.20;;;23.60;51.30;;;;;;4994760;28;20457;-77
2023/10/04 13:33:04;;;;;;;2.10;1.10;;;23.80;49.70;;;;;;4994700;28;20445;-77
2023/10/04 13:35:31;;;;;;;2.10;1.20;;;24.10;48.80;;;;;;4995557;28;21026;-77
2023/10/04 13:37:59;;;;;;;1.90;0.90;;;24.40;49.30;;;;;;4998072;28;20489;-72
2023/10/04 13:40:25;;;;;;;1.93;1.30;;;24.80;47.20;;;;;;4998879;28;20453;-75
2023/10/04 13:42:54;;;;;;;2.00;1.00;;;25.00;46.90;;;;;;4997558;28;20893;-79
2023/10/04 13:45:21;;;;;;;1.73;0.93;;;25.60;45.90;;;;;;4997352;28;20456;-76
2023/10/04 13:47:47;;;;;;;2.63;1.20;;;26.40;44.80;;;;;;4997873;28;20472;-74
2023/10/04 13:50:19;;;;;;;1.80;0.97;;;27.00;43.10;;;;;;4998874;28;20444;-76
2023/10/04 13:52:45;;;;;;;2.50;1.40;;;27.70;41.50;;;;;;5000254;28;20476;-76
2023/10/04 13:55:12;;;;;;;1.90;0.93;;;28.00;41.00;;;;;;4999809;28;20460;-75
2023/10/04 13:57:39;;;;;;;3.00;1.50;;;28.10;40.90;;;;;;5000074;28;20497;-76
2023/10/04 14:00:19;;;;;;;1.77;0.87;;;27.90;40.90;;;;;;5000012;28;21024;-74
2023/10/04 14:02:46;;;;;;;2.47;1.17;;;27.80;41.70;;;;;;4998090;28;20460;-75
2023/10/04 14:05:18;;;;;;;3.30;1.20;;;27.40;41.90;;;;;;4998304;28;20449;-77
2023/10/04 14:07:48;;;;;;;2.10;1.00;;;26.80;42.50;;;;;;4999821;28;20433;-76
2023/10/04 14:10:15;;;;;;;2.20;1.00;;;26.50;44.70;;;;;;4997994;28;20448;-76
2023/10/04 14:12:42;;;;;;;2.47;1.20;;;26.00;44.40;;;;;;4998204;28;20453;-76
2023/10/04 14:15:13;;;;;;;2.00;1.13;;;25.60;44.90;;;;;;4997933;28;20445;-76
2023/10/04 14:17:41;;;;;;;3.10;1.23;;;25.70;45.40;;;;;;4998106;28;20475;-76
2023/10/04 14:20:13;;;;;;;1.97;1.00;;;25.50;45.50;;;;;;4997411;28;20950;-75
2023/10/04 14:22:41;;;;;;;2.97;1.20;;;25.30;46.00;;;;;;4998192;28;20437;-75
2023/10/04 14:25:14;;;;;;;1.90;1.00;;;25.30;45.80;;;;;;4997639;28;20442;-70
2023/10/04 14:27:43;;;;;;;1.80;1.10;;;25.10;46.40;;;;;;4998440;28;20433;-75
2023/10/04 14:30:13;;;;;;;2.63;1.30;;;25.40;45.60;;;;;;4997888;28;20452;-73
2023/10/04 14:32:42;;;;;;;2.17;1.03;;;25.50;45.70;;;;;;4997483;28;20429;-76
2023/10/04 14:35:10;;;;;;;2.23;1.10;;;25.50;46.20;;;;;;4997026;28;20943;-75
2023/10/04 14:37:37;;;;;;;1.90;1.10;;;25.50;46.20;;;;;;4996836;28;20487;-75
2023/10/04 14:40:11;;;;;;;2.30;1.33;;;25.50;46.10;;;;;;4996828;28;20483;-72
2023/10/04 14:42:38;;;;;;;2.47;1.10;;;25.50;45.30;;;;;;4997044;28;20478;-74
2023/10/04 14:45:06;;;;;;;1.70;0.97;;;25.70;45.80;;;;;;4996949;28;20445;-75
2023/10/04 14:47:35;;;;;;;2.63;1.43;;;26.00;45.50;;;;;;4995798;28;20445;-75
2023/10/04 14:50:03;;;;;;;1.93;1.00;;;26.60;44.00;;;;;;4997098;28;20888;-76
2023/10/04 14:52:30;;;;;;;2.00;1.20;;;26.80;44.30;;;;;;4997161;28;20453;-75
2023/10/04 14:54:59;;;;;;;2.20;1.40;;;26.70;43.40;;;;;;4996635;28;20507;-74
2023/10/04 14:57:25;;;;;;;1.83;0.90;;;26.10;44.30;;;;;;4996306;28;20458;-74
2023/10/04 14:59:52;;;;;;;3.07;1.10;;;26.00;45.00;;;;;;4996592;28;20469;-71
2023/10/04 15:02:19;;;;;;;2.20;1.30;;;26.10;44.50;;;;;;4996593;28;20449;-73
2023/10/04 15:04:48;;;;;;;2.33;1.23;;;25.80;44.80;;;;;;4996273;28;20452;-73
2023/10/04 15:07:15;;;;;;;2.33;1.50;;;25.40;45.30;;;;;;4996450;28;20544;-74
2023/10/04 15:09:42;;;;;;;2.27;1.40;;;24.90;46.00;;;;;;4996268;28;20468;-73
2023/10/04 15:12:10;;;;;;;2.17;1.00;;;24.60;47.60;;;;;;4996188;28;20449;-74
2023/10/04 15:14:37;;;;;;;2.47;0.97;;;24.40;48.50;;;;;;4996388;28;20523;-73
2023/10/04 15:17:04;;;;;;;2.73;1.33;;;24.20;49.00;;;;;;4996279;28;20548;-73
2023/10/04 15:19:31;;;;;;;1.97;0.97;;;23.90;49.70;;;;;;4995675;28;20572;-73
2023/10/04 15:21:59;;;;;;;2.87;1.00;;;23.50;51.00;;;;;;4996109;28;20449;-73
2023/10/04 15:24:26;;;;;;;2.70;1.13;;;23.10;51.00;;;;;;4996010;28;20938;-73
2023/10/04 15:26:53;;;;;;;3.40;1.10;;;22.80;50.60;;;;;;4995996;28;20445;-72
2023/10/04 15:29:22;;;;;;;1.73;1.00;;;22.50;51.50;;;;;;4995800;28;20476;-73
2023/10/04 15:31:48;;;;;;;2.00;1.20;;;22.30;51.50;;;;;;4996010;28;20556;-74
2023/10/04 15:34:15;;;;;;;1.80;1.00;;;21.90;53.00;;;;;;4996144;28;20447;-73
2023/10/04 15:36:43;;;;;;;3.20;1.20;;;21.70;52.80;;;;;;4995775;28;20449;-72
2023/10/04 15:39:20;;;;;;;1.90;1.20;;;21.20;53.90;;;;;;4995600;28;20493;-72
2023/10/04 15:41:47;;;;;;;1.80;0.90;;;20.80;54.70;;;;;;4995771;28;20437;-73
2023/10/04 15:44:14;;;;;;;2.40;1.20;;;20.60;55.30;;;;;;4995945;28;20537;-73
2023/10/04 15:46:41;;;;;;;2.10;1.10;;;20.60;55.40;;;;;;4995284;28;20960;-73
2023/10/04 15:49:08;;;;;;;2.10;1.00;;;20.40;55.70;;;;;;4995401;28;20465;-72
2023/10/04 15:51:35;;;;;;;3.30;1.50;;;20.40;56.60;;;;;;4995463;28;20451;-73
2023/10/04 15:54:02;;;;;;;2.53;1.20;;;20.40;55.80;;;;;;4995514;28;20480;-73
2023/10/04 15:56:30;;;;;;;2.27;1.00;;;20.10;56.20;;;;;;4995523;28;20453;-73
2023/10/04 15:58:57;;;;;;;2.83;0.90;;;19.90;56.50;;;;;;4994754;28;21027;-73
2023/10/04 16:01:24;;;;;;;2.07;0.90;;;19.90;56.60;;;;;;4994748;28;21004;-73
2023/10/04 16:03:51;;;;;;;2.57;1.20;;;20.00;57.60;;;;;;4995212;28;20536;-74
2023/10/04 16:06:18;;;;;;;2.80;1.00;;;20.00;57.90;;;;;;4994828;28;20996;-73
2023/10/04 16:08:45;;;;;;;2.87;1.10;;;20.10;57.30;;;;;;4994660;28;20978;-72
2023/10/04 16:11:11;;;;;;;2.40;1.53;;;20.10;57.70;;;;;;4995050;28;20457;-74
2023/10/04 16:13:39;;;;;;;3.27;1.60;;;20.10;57.60;;;;;;4995011;28;20496;-72
2023/10/04 16:16:07;;;;;;;2.20;1.20;;;19.90;57.40;;;;;;4994962;28;20449;-74
2023/10/04 16:18:34;;;;;;;2.00;1.30;;;19.90;58.20;;;;;;5049528;23;20512;-72
2023/10/04 16:21:00;;;;;;;3.30;1.43;;;19.90;57.80;;;;;;4994872;28;20810;-72
2023/10/04 16:23:28;;;;;;;2.43;1.33;;;19.90;58.30;;;;;;4994897;28;20449;-73
2023/10/04 16:25:55;;;;;;;2.00;1.07;;;19.80;58.60;;;;;;4995396;28;20437;-74
2023/10/04 16:28:22;;;;;;;2.07;1.20;;;19.80;58.90;;;;;;4994375;28;21001;-73
2023/10/04 16:30:50;;;;;;;2.83;1.40;;;19.70;58.80;;;;;;4994788;28;20441;-74
2023/10/04 16:33:17;;;;;;;3.00;1.50;;;19.70;58.80;;;;;;4994737;28;20451;-73
2023/10/04 16:35:44;;;;;;;2.20;1.30;;;19.60;59.40;;;;;;4994857;28;20499;-74
2023/10/04 16:38:11;;;;;;;2.63;1.30;;;19.50;59.60;;;;;;4994605;28;20547;-73
2023/10/04 16:40:38;;;;;;;2.33;1.10;;;19.50;59.50;;;;;;4994601;28;20453;-73
2023/10/04 16:43:05;;;;;;;2.47;1.10;;;19.40;60.10;;;;;;4994388;28;20449;-72
2023/10/04 16:45:32;;;;;;;2.10;1.10;;;19.40;60.30;;;;;;4994236;28;20445;-71
2023/10/04 16:48:03;;;;;;;3.37;1.20;;;19.30;60.70;;;;;;4994447;28;20481;-72
2023/10/04 16:50:29;;;;;;;2.30;1.37;;;19.20;61.10;;;;;;4994526;28;20437;-72
2023/10/04 16:52:56;;;;;;;2.57;1.30;;;19.10;60.70;;;;;;4994459;28;20456;-73
2023/10/04 16:55:24;;;;;;;2.30;1.30;;;19.00;60.80;;;;;;4994571;28;20465;-72
2023/10/04 16:57:50;;;;;;;1.80;1.00;;;19.00;61.60;;;;;;4994094;28;20464;-72